Time;durP1;ratioP1;P1;durP2;ratioP2;P2;SDS_P1;SDS_P2;PMS_P1;PMS_P2;Temp;Humidity;BMP_temperature;BMP_pressure;BME280_temperature;BME280_humidity;BME280_pressure;Samples;Min_cycle;Max_cycle;Signal;HPM_P1;HPM_P2
2023/09/17 00:01:20;;;;;;;10.52;8.32;;;;;;;21.24;76.25;100319.06;4203116;28;20036;-68
2023/09/17 00:03:22;;;;;;;11.90;8.80;;;;;;;21.24;76.09;100313.78;4202304;28;20044;-68
2023/09/17 00:05:25;;;;;;;13.15;9.25;;;;;;;21.24;76.21;100321.72;4204456;28;20044;-68
2023/09/17 00:07:28;;;;;;;18.25;10.27;;;;;;;21.25;76.02;100319.03;4204654;28;20042;-68
2023/09/17 00:09:31;;;;;;;17.58;9.75;;;;;;;21.20;76.23;100317.44;4210093;28;20032;-68
2023/09/17 00:11:33;;;;;;;11.23;8.95;;;;;;;21.17;76.26;100315.75;4200705;28;20457;-68
2023/09/17 00:13:41;;;;;;;14.82;10.68;;;;;;;21.20;76.07;100313.03;4206545;28;20047;-68
2023/09/17 00:15:46;;;;;;;15.63;9.70;;;;;;;21.17;76.07;100318.38;4205793;28;20506;-68
2023/09/17 00:17:52;;;;;;;11.50;8.00;;;;;;;21.15;76.10;100317.59;4185805;28;20049;-68
2023/09/17 00:19:55;;;;;;;13.18;10.15;;;;;;;21.14;76.06;100323.78;4207245;28;20097;-68
2023/09/17 00:21:58;;;;;;;11.07;8.55;;;;;;;21.10;76.24;100317.75;4208443;28;20048;-68
2023/09/17 00:24:01;;;;;;;15.32;8.82;;;;;;;21.07;76.36;100319.59;4211383;28;20041;-68
2023/09/17 00:26:04;;;;;;;12.77;8.00;;;;;;;21.04;76.44;100319.69;4202859;28;20033;-67
2023/09/17 00:28:06;;;;;;;14.57;9.35;;;;;;;21.04;76.26;100317.94;4205837;28;20033;-68
2023/09/17 00:30:10;;;;;;;18.15;10.40;;;;;;;21.03;76.38;100310.91;4202528;28;20040;-68
2023/09/17 00:32:14;;;;;;;16.65;10.32;;;;;;;21.05;75.92;100311.72;4202623;28;20512;-67
2023/09/17 00:34:16;;;;;;;16.85;11.38;;;;;;;21.04;75.76;100314.41;4180387;28;20120;-68
2023/09/17 00:36:20;;;;;;;16.05;9.95;;;;;;;20.93;75.83;100315.63;4193525;28;20048;-68
2023/09/17 00:38:22;;;;;;;13.77;9.35;;;;;;;20.89;76.09;100323.69;4184066;28;20099;-68
2023/09/17 00:40:29;;;;;;;16.98;11.15;;;;;;;20.90;76.19;100326.28;4181634;28;20040;-68
2023/09/17 00:42:31;;;;;;;20.25;11.02;;;;;;;20.92;75.74;100319.19;4200911;28;20123;-68
2023/09/17 00:44:34;;;;;;;18.80;11.32;;;;;;;20.93;76.03;100307.69;4189134;28;20040;-67
2023/09/17 00:46:37;;;;;;;12.85;9.77;;;;;;;20.88;76.42;100306.97;4198150;28;20093;-67
2023/09/17 00:48:46;;;;;;;19.92;10.50;;;;;;;20.86;76.48;100314.06;4177768;28;20108;-67
2023/09/17 00:50:49;;;;;;;15.27;10.65;;;;;;;20.80;76.78;100311.63;4186094;28;20044;-68
2023/09/17 00:52:52;;;;;;;10.77;8.40;;;;;;;20.76;76.92;100312.63;4204592;28;20047;-68
2023/09/17 00:54:57;;;;;;;12.25;9.10;;;;;;;20.75;76.83;100316.22;4176664;28;20283;-68
2023/09/17 00:57:00;;;;;;;12.10;9.85;;;;;;;20.76;76.81;100302.06;4176472;28;20036;-68
2023/09/17 00:59:05;;;;;;;12.95;10.40;;;;;;;20.81;76.57;100317.75;4192142;28;20034;-68
2023/09/17 01:01:09;;;;;;;10.63;9.07;;;;;;;20.76;76.61;100317.91;4197626;28;20124;-68
2023/09/17 01:03:12;;;;;;;13.95;10.23;;;;;;;20.71;76.88;100325.13;4184009;28;20044;-68
2023/09/17 01:05:37;;;;;;;12.35;9.02;;;;;;;20.62;77.46;100314.78;4200437;28;20582;-70
2023/09/17 01:07:42;;;;;;;14.35;8.63;;;;;;;20.67;77.39;100324.34;4168732;28;20049;-63
2023/09/17 01:09:45;;;;;;;12.27;8.68;;;;;;;20.72;77.05;100321.56;4152630;28;20046;-63
2023/09/17 01:11:48;;;;;;;10.57;9.07;;;;;;;20.64;77.46;100318.25;4154754;28;21745;-63
2023/09/17 01:13:58;;;;;;;12.40;8.20;;;;;;;20.70;77.26;100323.38;4166954;28;20100;-63
2023/09/17 01:16:03;;;;;;;14.13;9.32;;;;;;;20.75;77.31;100317.06;4155462;28;20563;-63
2023/09/17 01:18:10;;;;;;;12.60;8.52;;;;;;;20.75;77.18;100316.22;4151197;28;20100;-63
2023/09/17 01:20:24;;;;;;;14.40;10.27;;;;;;;20.75;77.11;100316.22;4158969;28;20049;-63
2023/09/17 01:22:35;;;;;;;9.95;8.40;;;;;;;20.74;77.17;100319.75;4167873;28;20820;-63
2023/09/17 01:24:49;;;;;;;10.93;8.57;;;;;;;20.71;77.37;100320.69;4169386;28;20037;-63
2023/09/17 01:26:59;;;;;;;13.00;9.40;;;;;;;20.70;77.33;100321.59;4168224;28;20484;-63
2023/09/17 01:29:04;;;;;;;11.27;8.82;;;;;;;20.74;77.34;100325.03;4151363;28;20036;-63
2023/09/17 01:31:09;;;;;;;16.40;10.10;;;;;;;20.73;77.23;100316.25;4171646;28;20037;-63
2023/09/17 01:33:12;;;;;;;14.02;10.07;;;;;;;20.70;77.20;100312.81;4172551;28;20516;-63
2023/09/17 01:35:17;;;;;;;12.70;9.93;;;;;;;20.68;77.18;100319.94;4169127;28;20444;-63
2023/09/17 01:37:27;;;;;;;11.82;9.23;;;;;;;20.67;77.32;100318.19;4149977;28;20042;-63
2023/09/17 01:39:38;;;;;;;10.75;9.32;;;;;;;20.62;77.66;100313.03;4167933;28;20029;-63
2023/09/17 01:41:41;;;;;;;12.63;10.57;;;;;;;20.70;77.34;100313.69;4158087;28;20044;-63
2023/09/17 01:43:46;;;;;;;15.13;10.20;;;;;;;20.74;77.33;100312.69;4150878;28;20033;-63
2023/09/17 01:45:50;;;;;;;12.55;9.38;;;;;;;20.71;77.26;100319.84;4153701;28;20128;-62
2023/09/17 01:47:53;;;;;;;11.88;10.20;;;;;;;20.63;77.81;100316.53;4155742;28;20033;-62
2023/09/17 01:49:58;;;;;;;11.60;10.27;;;;;;;20.64;77.91;100320.91;4165990;28;20496;-63
2023/09/17 01:52:01;;;;;;;;;;;;;;;20.52;78.26;100335.34;4169152;28;20063;-63
2023/09/17 01:54:06;;;;;;;12.15;10.18;;;;;;;20.56;78.08;100326.41;4169529;28;19932;-63
2023/09/17 01:56:09;;;;;;;13.35;10.60;;;;;;;20.65;77.84;100320.84;4153701;28;20046;-63
2023/09/17 01:58:12;;;;;;;12.38;10.05;;;;;;;20.65;77.73;100325.28;4167653;28;20069;-63
2023/09/17 02:00:18;;;;;;;13.98;10.55;;;;;;;20.65;77.91;100335.84;4154314;28;20578;-63
2023/09/17 02:02:21;;;;;;;11.63;9.43;;;;;;;20.62;78.07;100334.16;4168267;28;20033;-63
2023/09/17 02:04:24;;;;;;;12.98;10.45;;;;;;;20.60;78.39;100335.09;4152967;28;20034;-63
2023/09/17 02:06:28;;;;;;;11.70;9.45;;;;;;;20.62;78.35;100334.16;4135086;28;1040409;-63
2023/09/17 02:08:31;;;;;;;13.05;10.57;;;;;;;20.64;78.19;100337.59;4154255;28;20041;-63
2023/09/17 02:10:34;;;;;;;12.90;11.18;;;;;;;20.64;78.20;100336.75;4155853;28;20108;-63
2023/09/17 02:12:37;;;;;;;13.77;9.25;;;;;;;20.61;78.56;100345.63;4152062;28;20049;-63
2023/09/17 02:14:41;;;;;;;13.15;10.18;;;;;;;20.63;78.57;100342.94;4170259;28;20063;-63
2023/09/17 02:16:45;;;;;;;13.90;10.05;;;;;;;20.66;78.35;100342.84;4171401;28;20511;-63
2023/09/17 02:18:50;;;;;;;11.90;8.70;;;;;;;20.62;78.50;100341.19;4165881;28;20042;-63
2023/09/17 02:20:53;;;;;;;12.85;10.40;;;;;;;20.62;78.48;100343.84;4153212;28;20450;-63
2023/09/17 02:22:56;;;;;;;13.43;9.07;;;;;;;20.66;78.41;100335.84;4157569;28;20042;-63
2023/09/17 02:24:59;;;;;;;16.40;9.38;;;;;;;20.64;78.20;100344.69;4148827;28;20033;-63
2023/09/17 02:27:03;;;;;;;15.38;11.15;;;;;;;20.63;78.35;100342.94;4175858;28;20485;-63
2023/09/17 02:29:07;;;;;;;11.65;9.18;;;;;;;20.64;78.43;100339.41;4154893;28;20036;-63
2023/09/17 02:31:10;;;;;;;;;;;;;;;20.57;78.34;100339.59;4150924;28;20034;-63
2023/09/17 02:33:14;;;;;;;12.60;8.85;;;;;;;20.57;78.55;100346.63;4151210;28;19925;-63
2023/09/17 02:35:17;;;;;;;13.90;9.63;;;;;;;20.61;78.59;100340.34;4148334;28;20096;-63
2023/09/17 02:37:19;;;;;;;11.90;9.32;;;;;;;20.65;78.43;100335.84;4172438;28;20103;-63
2023/09/17 02:39:22;;;;;;;10.40;8.88;;;;;;;20.63;78.40;100327.09;4156247;28;20048;-62
2023/09/17 02:41:24;;;;;;;13.88;10.07;;;;;;;20.64;78.31;100323.53;4164040;28;20068;-63
2023/09/17 02:43:29;;;;;;;11.68;9.65;;;;;;;20.64;78.23;100339.41;4151196;28;20137;-62
2023/09/17 02:45:32;;;;;;;12.57;10.43;;;;;;;20.63;78.17;100330.59;4152219;28;20080;-63
2023/09/17 02:47:35;;;;;;;12.38;9.85;;;;;;;20.67;77.95;100328.78;4138010;28;20038;-63
2023/09/17 02:49:39;;;;;;;12.43;9.63;;;;;;;20.64;77.68;100326.19;4155270;28;20117;-62
2023/09/17 02:51:44;;;;;;;13.00;10.25;;;;;;;20.68;77.68;100326.06;4154770;28;20042;-62
2023/09/17 02:53:47;;;;;;;13.60;10.25;;;;;;;20.66;77.64;100321.72;4155123;28;20048;-62
2023/09/17 02:55:51;;;;;;;11.25;9.57;;;;;;;20.61;77.80;100323.63;4173761;28;20039;-62
2023/09/17 02:57:54;;;;;;;11.98;7.90;;;;;;;20.55;78.00;100324.69;4155741;28;20136;-63
2023/09/17 02:59:57;;;;;;;13.17;8.83;;;;;;;20.54;78.13;100336.16;4170700;28;20540;-63
2023/09/17 03:02:00;;;;;;;11.35;8.73;;;;;;;20.52;78.26;100346.75;4152324;28;20037;-63
2023/09/17 03:04:03;;;;;;;10.80;9.38;;;;;;;20.57;78.23;100351.91;4153369;28;20568;-63
2023/09/17 03:06:08;;;;;;;16.85;10.98;;;;;;;20.60;77.97;100340.38;4172135;28;20072;-62
2023/09/17 03:08:11;;;;;;;10.85;9.30;;;;;;;20.58;77.98;100341.28;4168865;28;20497;-63
2023/09/17 03:10:18;;;;;;;14.05;10.75;;;;;;;20.56;78.06;100345.75;4164569;28;20489;-62
2023/09/17 03:12:21;;;;;;;9.57;7.95;;;;;;;20.52;78.27;100354.69;4158243;28;20104;-63
2023/09/17 03:14:24;;;;;;;10.00;8.40;;;;;;;20.53;78.29;100363.47;4152917;28;20034;-63
2023/09/17 03:16:27;;;;;;;11.25;9.43;;;;;;;20.55;78.18;100351.94;4156162;28;20427;-63
2023/09/17 03:18:30;;;;;;;12.85;9.23;;;;;;;20.62;77.77;100343.84;4157232;28;20037;-63
2023/09/17 03:20:34;;;;;;;16.75;11.10;;;;;;;20.56;77.81;100343.13;4154599;28;20092;-63
2023/09/17 03:22:39;;;;;;;12.63;11.32;;;;;;;20.48;78.15;100342.47;4152242;28;20084;-62
2023/09/17 03:24:42;;;;;;;;;;;;;;;20.51;78.05;100347.66;4155215;28;20484;-62
2023/09/17 03:27:05;;;;;;;14.75;11.02;;;;;;;20.48;78.04;100333.69;4153244;28;19921;-62
2023/09/17 03:29:08;;;;;;;12.15;10.00;;;;;;;20.50;78.02;100343.31;4171332;28;20044;-62
2023/09/17 03:31:12;;;;;;;12.48;10.05;;;;;;;20.45;78.32;100344.34;4168539;28;20576;-62
2023/09/17 03:33:15;;;;;;;13.35;10.95;;;;;;;20.49;78.11;100335.44;4151818;28;20054;-62
2023/09/17 03:35:21;;;;;;;14.88;9.98;;;;;;;20.46;78.34;100327.56;4174433;28;20044;-62
2023/09/17 03:37:25;;;;;;;17.08;11.57;;;;;;;20.46;78.32;100331.09;4148495;28;20124;-62
2023/09/17 03:39:30;;;;;;;13.52;11.75;;;;;;;20.46;78.35;100335.50;4166724;28;20124;-62
2023/09/17 03:41:33;;;;;;;;;;;;;;;20.40;78.38;100340.06;4169119;28;20536;-62
2023/09/17 03:43:36;;;;;;;13.70;12.20;;;;;;;20.40;78.60;100336.56;4154915;28;19920;-62
2023/09/17 03:45:40;;;;;;;17.40;12.35;;;;;;;20.39;78.72;100340.09;4165588;28;20029;-62
2023/09/17 03:47:47;;;;;;;17.02;11.07;;;;;;;20.40;78.33;100332.13;4161771;28;20091;-62
2023/09/17 03:49:49;;;;;;;13.70;12.25;;;;;;;20.39;78.78;100337.47;4166450;28;20029;-62
2023/09/17 03:51:52;;;;;;;12.93;11.27;;;;;;;20.41;78.54;100333.00;4165617;28;20485;-62
2023/09/17 03:53:55;;;;;;;14.32;11.88;;;;;;;20.36;78.81;100332.28;4163771;28;20092;-62
2023/09/17 03:55:59;;;;;;;17.90;12.98;;;;;;;20.40;78.77;100333.91;4151545;28;20440;-62
2023/09/17 03:58:03;;;;;;;14.40;12.90;;;;;;;20.33;78.91;100325.28;4150087;28;20472;-62
2023/09/17 04:00:14;;;;;;;16.88;12.18;;;;;;;20.36;78.73;100324.34;4152565;28;20527;-62
2023/09/17 04:02:20;;;;;;;14.85;11.23;;;;;;;20.27;79.36;100327.22;4167844;28;20055;-62
2023/09/17 04:04:23;;;;;;;15.05;11.88;;;;;;;20.30;79.17;100327.16;4167138;28;20090;-62
2023/09/17 04:06:26;;;;;;;13.82;12.43;;;;;;;20.32;79.23;100325.34;4166028;28;20045;-62
2023/09/17 04:08:29;;;;;;;14.52;11.07;;;;;;;20.31;79.20;100332.41;4154578;28;20049;-63
2023/09/17 04:10:32;;;;;;;11.88;9.68;;;;;;;20.32;79.08;100334.13;4169718;28;20037;-62
2023/09/17 04:12:37;;;;;;;14.65;11.80;;;;;;;20.28;79.63;100332.50;4144397;28;20050;-62
2023/09/17 04:14:40;;;;;;;11.98;10.30;;;;;;;20.31;79.08;100344.72;4151620;28;20038;-63
2023/09/17 04:16:43;;;;;;;17.40;11.50;;;;;;;20.29;79.09;100336.00;4150451;28;20563;-63
2023/09/17 04:18:46;;;;;;;18.23;14.68;;;;;;;20.28;79.38;100342.16;4160470;28;20045;-62
2023/09/17 04:20:48;;;;;;;14.60;11.05;;;;;;;20.27;79.18;100335.16;4161778;28;20044;-62
2023/09/17 04:22:51;;;;;;;16.45;13.23;;;;;;;20.29;79.26;100342.13;4161210;28;20045;-62
2023/09/17 04:24:55;;;;;;;15.73;13.30;;;;;;;20.30;79.19;100335.94;4151724;28;20033;-62
2023/09/17 04:26:58;;;;;;;16.63;14.30;;;;;;;20.38;78.84;100333.06;4164540;28;20558;-62
2023/09/17 04:29:02;;;;;;;15.45;11.38;;;;;;;20.25;79.51;100331.69;4167387;28;20099;-62
2023/09/17 04:31:06;;;;;;;17.77;13.95;;;;;;;20.10;80.23;100340.91;4167540;28;20565;-62
2023/09/17 04:33:08;;;;;;;16.08;13.82;;;;;;;20.15;80.26;100337.25;4162343;28;20341;-62
2023/09/17 04:35:15;;;;;;;16.13;14.43;;;;;;;20.23;79.73;100331.75;4145404;28;20128;-62
2023/09/17 04:37:19;;;;;;;15.18;12.90;;;;;;;20.16;80.09;100343.38;4162052;28;20071;-62
2023/09/17 04:39:23;;;;;;;15.35;12.32;;;;;;;20.16;80.09;100349.50;4149679;28;20048;-62
2023/09/17 04:41:26;;;;;;;13.32;11.23;;;;;;;20.15;80.26;100350.44;4145304;28;20047;-62
2023/09/17 04:43:30;;;;;;;13.90;11.02;;;;;;;20.14;80.19;100347.84;4146886;28;20038;-62
2023/09/17 04:45:36;;;;;;;13.15;11.00;;;;;;;20.16;79.93;100352.16;4151047;28;20030;-62
2023/09/17 04:47:57;;;;;;;12.27;9.95;;;;;;;20.12;79.96;100350.53;4159165;28;20049;-62
2023/09/17 04:50:01;;;;;;;;;;;;;;;20.03;80.47;100361.31;4160853;28;20056;-62
2023/09/17 04:52:05;;;;;;;15.60;12.00;;;;;;;20.04;80.47;100363.06;4157073;28;19952;-62
2023/09/17 04:54:08;;;;;;;14.90;11.65;;;;;;;20.07;80.23;100356.84;4168349;28;20088;-62
2023/09/17 04:56:11;;;;;;;13.50;11.52;;;;;;;20.08;80.27;100356.78;4165981;28;20040;-62
2023/09/17 04:58:16;;;;;;;14.75;12.50;;;;;;;20.10;80.28;100360.25;4148539;28;20490;-62
2023/09/17 05:00:20;;;;;;;14.10;12.65;;;;;;;20.10;80.14;100362.88;4148730;28;20042;-62
2023/09/17 05:02:24;;;;;;;14.32;11.43;;;;;;;20.10;79.53;100370.81;4167370;28;20049;-62
2023/09/17 05:04:27;;;;;;;;;;;;;;;19.99;80.03;100364.94;4166604;28;20528;-62
2023/09/17 05:06:30;;;;;;;13.30;10.60;;;;;;;20.03;80.04;100367.47;4171472;28;19924;-62
2023/09/17 05:08:33;;;;;;;14.50;12.45;;;;;;;20.09;79.81;100363.78;4163925;28;20091;-62
2023/09/17 05:10:36;;;;;;;15.98;12.60;;;;;;;20.07;79.79;100365.59;4167948;28;20343;-62
2023/09/17 05:12:40;;;;;;;15.88;13.15;;;;;;;20.11;79.39;100366.41;4151325;28;20411;-62
2023/09/17 05:14:43;;;;;;;17.70;13.10;;;;;;;20.14;79.10;100366.31;4148195;28;20073;-62
2023/09/17 05:16:46;;;;;;;13.43;12.02;;;;;;;20.06;79.27;100366.50;4151371;28;20037;-62
2023/09/17 05:18:50;;;;;;;15.57;11.95;;;;;;;19.99;79.44;100371.09;4148321;28;20042;-62
2023/09/17 05:20:54;;;;;;;15.27;12.82;;;;;;;19.99;79.84;100372.84;4149439;28;20037;-62
2023/09/17 05:22:58;;;;;;;14.18;11.07;;;;;;;19.96;80.02;100376.47;4150657;28;20065;-62
2023/09/17 05:25:03;;;;;;;13.25;11.23;;;;;;;19.95;80.05;100381.78;4152575;28;20041;-62
2023/09/17 05:27:06;;;;;;;13.85;12.40;;;;;;;19.94;80.18;100380.88;4165384;28;20044;-62
2023/09/17 05:29:10;;;;;;;13.63;12.20;;;;;;;19.95;80.06;100376.50;4163262;28;20106;-62
2023/09/17 05:31:13;;;;;;;13.32;11.93;;;;;;;19.94;80.01;100375.59;4164898;28;20030;-62
2023/09/17 05:33:17;;;;;;;14.88;12.13;;;;;;;19.95;80.13;100381.78;4164651;28;20037;-62
2023/09/17 05:35:22;;;;;;;12.87;11.47;;;;;;;19.98;79.91;100381.69;4169261;28;20041;-62
2023/09/17 05:37:25;;;;;;;14.30;10.48;;;;;;;19.96;80.13;100389.66;4149378;28;20114;-62
2023/09/17 05:39:28;;;;;;;14.77;11.00;;;;;;;19.97;80.08;100391.38;4147943;28;20038;-62
2023/09/17 05:41:31;;;;;;;14.20;11.88;;;;;;;19.96;80.03;100388.75;4164429;28;20168;-63
2023/09/17 05:43:34;;;;;;;13.13;11.75;;;;;;;20.01;79.84;100386.88;4164473;28;20067;-62
2023/09/17 05:45:39;;;;;;;14.65;12.38;;;;;;;19.99;79.93;100393.97;4166837;28;20132;-62
2023/09/17 05:47:42;;;;;;;13.77;12.18;;;;;;;20.00;79.79;100401.84;4147888;28;20041;-62
2023/09/17 05:49:45;;;;;;;11.10;9.90;;;;;;;20.00;80.31;100398.34;4164865;28;20484;-62
2023/09/17 05:51:50;;;;;;;13.52;11.35;;;;;;;20.02;79.90;100399.19;4168901;28;20288;-62
2023/09/17 05:53:53;;;;;;;11.13;9.90;;;;;;;20.02;80.09;100407.97;4164448;28;20042;-62
2023/09/17 05:55:56;;;;;;;13.35;11.48;;;;;;;20.03;80.01;100404.41;4153523;28;20033;-62
2023/09/17 05:57:59;;;;;;;15.85;12.07;;;;;;;20.06;79.98;100416.66;4165481;28;20095;-62
2023/09/17 06:00:04;;;;;;;14.18;11.25;;;;;;;20.08;79.71;100406.94;4172908;28;20067;-62
2023/09/17 06:02:15;;;;;;;14.73;11.77;;;;;;;20.07;80.04;100412.25;4162105;28;20484;-62
2023/09/17 06:04:19;;;;;;;15.00;11.82;;;;;;;20.08;79.69;100406.94;4169449;28;20451;-62
2023/09/17 06:06:22;;;;;;;12.95;9.73;;;;;;;20.10;79.73;100415.66;4148883;28;20144;-62
2023/09/17 06:08:28;;;;;;;13.68;11.93;;;;;;;20.12;79.67;100419.16;4167260;28;20076;-62
2023/09/17 06:10:31;;;;;;;16.00;11.45;;;;;;;20.27;78.98;100414.34;4163938;28;20049;-63
2023/09/17 06:12:34;;;;;;;11.18;9.98;;;;;;;20.20;79.25;100414.53;4163169;28;20468;-62
2023/09/17 06:14:38;;;;;;;;;;;;;;;20.14;79.33;100417.31;4146895;28;20053;-62
2023/09/17 06:16:42;;;;;;;15.02;11.95;;;;;;;20.13;79.41;100420.00;4161508;28;19967;-62
2023/09/17 06:18:59;;;;;;;16.27;11.90;;;;;;;20.19;79.40;100422.47;4162828;28;20042;-62
2023/09/17 06:21:03;;;;;;;16.23;10.57;;;;;;;20.19;79.54;100418.09;4164111;28;20034;-62
2023/09/17 06:23:06;;;;;;;16.67;10.87;;;;;;;20.27;79.39;100414.34;4164722;28;20037;-62
2023/09/17 06:25:10;;;;;;;11.20;8.23;;;;;;;20.31;79.05;100423.94;4167127;28;20408;-62
2023/09/17 06:27:13;;;;;;;11.60;8.30;;;;;;;20.37;78.42;100423.75;4158788;28;20036;-62
2023/09/17 06:29:16;;;;;;;11.35;9.13;;;;;;;20.48;78.23;100419.06;4146971;28;20084;-61
2023/09/17 06:31:20;;;;;;;11.88;8.82;;;;;;;20.56;78.00;100426.78;4147266;28;20037;-61
2023/09/17 06:33:23;;;;;;;9.85;7.97;;;;;;;20.62;77.68;100420.44;4163791;28;20139;-61
2023/09/17 06:35:26;;;;;;;13.75;10.63;;;;;;;20.77;77.38;100420.06;4162857;28;20489;-61
2023/09/17 06:37:28;;;;;;;12.35;9.68;;;;;;;20.79;77.25;100420.84;4164778;28;20440;-61
2023/09/17 06:39:32;;;;;;;10.93;8.70;;;;;;;20.76;77.15;100418.31;4163580;28;20447;-61
2023/09/17 06:41:37;;;;;;;11.20;9.68;;;;;;;20.85;77.10;100419.81;4147236;28;20066;-61
2023/09/17 06:43:46;;;;;;;11.77;9.20;;;;;;;20.75;77.46;100412.16;4166574;28;20067;-61
2023/09/17 06:45:49;;;;;;;11.68;10.18;;;;;;;20.87;76.68;100413.59;4165287;28;20518;-61
2023/09/17 06:47:52;;;;;;;11.85;9.52;;;;;;;20.80;76.90;100409.38;4163765;28;20481;-62
2023/09/17 06:49:55;;;;;;;14.10;10.75;;;;;;;20.83;77.13;100404.00;4160603;28;20045;-61
2023/09/17 06:51:58;;;;;;;11.80;9.15;;;;;;;20.85;77.02;100417.19;4147295;28;20042;-63
2023/09/17 06:54:01;;;;;;;13.20;9.98;;;;;;;20.88;77.19;100414.44;4157088;28;21042;-63
2023/09/17 06:56:04;;;;;;;10.65;9.45;;;;;;;20.93;77.16;100418.69;4160569;28;20034;-63
2023/09/17 06:58:08;;;;;;;10.05;7.65;;;;;;;20.87;77.05;100420.66;4164015;28;20118;-63
2023/09/17 07:00:14;;;;;;;16.95;10.18;;;;;;;20.95;76.95;100417.78;4163011;28;20489;-63
2023/09/17 07:02:17;;;;;;;11.35;10.00;;;;;;;21.03;76.40;100415.78;4157085;28;20029;-63
2023/09/17 07:04:20;;;;;;;11.70;9.57;;;;;;;21.02;76.51;100420.19;4156026;28;20068;-63
2023/09/17 07:06:23;;;;;;;11.48;8.98;;;;;;;20.97;76.56;100424.75;4184399;22;20058;-59
2023/09/17 07:08:26;;;;;;;10.07;8.35;;;;;;;20.99;76.49;100420.28;4196398;28;20041;-58
2023/09/17 07:10:29;;;;;;;9.10;7.57;;;;;;;21.08;76.32;100419.16;4192155;28;20040;-59
2023/09/17 07:12:36;;;;;;;9.40;8.05;;;;;;;21.17;76.00;100424.13;4173256;28;20604;-59
2023/09/17 07:14:41;;;;;;;10.80;7.32;;;;;;;21.21;75.92;100420.50;4189443;28;20408;-59
2023/09/17 07:16:44;;;;;;;9.98;7.60;;;;;;;21.26;75.44;100420.34;4189429;28;20036;-59
2023/09/17 07:18:48;;;;;;;12.20;8.88;;;;;;;21.35;75.01;100429.78;4185910;28;20041;-60
2023/09/17 07:20:51;;;;;;;11.45;8.23;;;;;;;21.35;75.08;100421.84;4167333;28;20041;-60
2023/09/17 07:22:54;;;;;;;9.32;7.20;;;;;;;21.34;74.93;100426.28;4191046;28;20028;-59
2023/09/17 07:24:58;;;;;;;14.00;9.05;;;;;;;21.50;74.61;100421.38;4196714;28;20032;-59
2023/09/17 07:27:01;;;;;;;10.25;8.32;;;;;;;21.47;74.82;100432.06;4171944;28;20506;-58
2023/09/17 07:29:04;;;;;;;13.15;10.40;;;;;;;21.54;74.55;100425.69;4170980;28;20045;-55
2023/09/17 07:31:10;;;;;;;12.00;8.80;;;;;;;21.48;74.16;100425.88;4195980;28;20043;-58
2023/09/17 07:33:13;;;;;;;11.27;8.45;;;;;;;21.49;74.11;100424.94;4196971;28;20036;-58
2023/09/17 07:35:16;;;;;;;9.38;7.95;;;;;;;21.54;73.89;100430.97;4173622;28;20099;-60
2023/09/17 07:37:20;;;;;;;13.02;9.43;;;;;;;21.65;74.07;100421.84;4187171;28;20372;-60
2023/09/17 07:39:27;;;;;;;10.65;7.38;;;;;;;21.67;73.65;100427.94;4194372;28;20094;-61
2023/09/17 07:41:30;;;;;;;9.15;7.43;;;;;;;21.69;73.59;100419.03;4176994;28;20041;-60
2023/09/17 07:43:33;;;;;;;10.90;8.00;;;;;;;21.77;73.14;100424.06;4193734;28;20028;-61
2023/09/17 07:45:36;;;;;;;10.43;7.10;;;;;;;21.87;72.28;100417.56;4166508;28;20125;-60
2023/09/17 07:47:40;;;;;;;10.73;8.05;;;;;;;21.95;72.13;100422.59;4196725;28;20059;-61
2023/09/17 07:49:44;;;;;;;8.80;7.35;;;;;;;21.97;72.36;100426.91;4193884;28;20479;-61
2023/09/17 07:51:47;;;;;;;10.20;7.20;;;;;;;21.96;72.46;100429.63;4196833;28;20135;-60
2023/09/17 07:53:50;;;;;;;10.32;7.28;;;;;;;21.95;72.20;100430.56;4177339;28;20045;-60
2023/09/17 07:55:54;;;;;;;17.00;8.27;;;;;;;22.07;71.58;100422.19;4194288;28;20048;-59
2023/09/17 07:57:56;;;;;;;11.63;8.20;;;;;;;22.09;71.79;100433.59;4172188;28;20037;-59
2023/09/17 07:59:59;;;;;;;8.07;6.57;;;;;;;22.13;71.66;100429.06;4196720;28;20036;-60
2023/09/17 08:02:03;;;;;;;8.98;7.80;;;;;;;22.24;71.33;100434.84;4195420;28;20033;-62
2023/09/17 08:04:09;;;;;;;12.00;7.82;;;;;;;22.24;71.08;100429.56;4195328;28;20082;-65
2023/09/17 08:06:12;;;;;;;13.73;7.63;;;;;;;22.46;69.76;100437.63;4189633;28;20450;-61
2023/09/17 08:08:15;;;;;;;7.85;6.00;;;;;;;22.37;70.54;100435.31;4187545;28;20040;-60
2023/09/17 08:10:18;;;;;;;9.75;6.40;;;;;;;22.44;70.30;100433.31;4176536;28;20078;-60
2023/09/17 08:12:20;;;;;;;12.55;7.50;;;;;;;22.54;69.92;100442.66;4188299;28;20464;-61
2023/09/17 08:14:23;;;;;;;10.43;7.13;;;;;;;22.50;69.75;100438.38;4181141;28;20128;-60
2023/09/17 08:16:26;;;;;;;10.73;6.05;;;;;;;22.49;69.79;100440.16;4191189;28;20043;-60
2023/09/17 08:18:30;;;;;;;8.98;7.15;;;;;;;22.52;69.78;100444.50;4189171;28;20056;-61
2023/09/17 08:20:34;;;;;;;6.60;5.82;;;;;;;22.64;69.57;100440.53;4192368;28;20036;-60
2023/09/17 08:22:39;;;;;;;8.15;6.40;;;;;;;22.68;68.90;100447.47;4170749;28;20076;-59
2023/09/17 08:24:47;;;;;;;9.55;7.18;;;;;;;22.88;68.28;100446.75;4190949;28;20115;-60
2023/09/17 08:26:52;;;;;;;10.30;6.90;;;;;;;22.84;68.34;100445.13;4188482;28;20037;-61
2023/09/17 08:28:55;;;;;;;10.02;5.97;;;;;;;22.65;68.90;100444.94;4191906;28;20032;-60
2023/09/17 08:30:58;;;;;;;7.65;5.60;;;;;;;22.70;69.38;100450.06;4190372;28;20045;-62
2023/09/17 08:33:01;;;;;;;10.85;7.38;;;;;;;22.83;68.62;100454.00;4194433;28;20045;-59
2023/09/17 08:35:06;;;;;;;8.57;6.70;;;;;;;22.89;68.52;100456.41;4192881;28;20036;-62
2023/09/17 08:37:10;;;;;;;;;;;;;;;22.87;68.09;100462.69;4177735;28;20123;-63
2023/09/17 08:39:13;;;;;;;10.40;7.10;;;;;;;22.77;68.12;100460.38;4194910;28;20364;-60
2023/09/17 08:41:17;;;;;;;9.50;6.22;;;;;;;22.85;68.53;100454.78;4193872;28;20116;-57
2023/09/17 08:43:20;;;;;;;8.50;6.95;;;;;;;22.95;67.77;100458.81;4176907;28;20508;-59
2023/09/17 08:45:25;;;;;;;10.85;7.60;;;;;;;23.01;67.49;100461.25;4194101;28;20084;-59
2023/09/17 08:47:28;;;;;;;9.85;6.88;;;;;;;23.01;67.50;100468.34;4188996;28;20071;-59
2023/09/17 08:49:31;;;;;;;8.45;6.75;;;;;;;23.06;67.07;100461.09;4194397;28;20033;-60
2023/09/17 08:51:37;;;;;;;7.50;6.40;;;;;;;23.16;66.69;100454.53;4176243;28;20072;-60
2023/09/17 08:53:52;;;;;;;10.75;7.45;;;;;;;23.22;66.40;100445.50;4152366;28;20049;-60
2023/09/17 08:55:57;;;;;;;7.68;5.63;;;;;;;23.23;67.20;100447.22;4191169;28;20396;-60
2023/09/17 08:58:11;;;;;;;8.90;6.60;;;;;;;23.31;67.34;100453.06;4194193;28;20033;-59
2023/09/17 09:00:17;;;;;;;9.38;6.55;;;;;;;23.48;66.59;100449.78;4179385;28;20041;-59
2023/09/17 09:02:22;;;;;;;7.40;6.40;;;;;;;23.46;66.13;100450.75;4196315;28;20067;-59
2023/09/17 09:04:27;;;;;;;9.45;6.18;;;;;;;23.56;65.62;100444.16;4198571;28;20095;-61
2023/09/17 09:06:30;;;;;;;7.82;6.10;;;;;;;23.66;64.66;100436.69;4197346;28;20040;-60
2023/09/17 09:08:35;;;;;;;7.47;6.13;;;;;;;23.70;64.82;100431.19;4194586;28;20438;-60
2023/09/17 09:10:39;;;;;;;8.18;6.40;;;;;;;23.80;64.54;100422.84;4192062;28;20047;-60
2023/09/17 09:12:43;;;;;;;7.05;5.07;;;;;;;23.83;64.42;100433.31;4166095;28;20044;-60
2023/09/17 09:14:48;;;;;;;7.35;5.72;;;;;;;23.88;64.75;100426.06;4192489;28;20402;-60
2023/09/17 09:16:50;;;;;;;8.13;6.40;;;;;;;23.96;64.21;100426.63;4192055;28;20069;-59
2023/09/17 09:18:54;;;;;;;9.52;6.45;;;;;;;24.12;64.03;100429.47;4193112;28;20057;-60
2023/09/17 09:20:57;;;;;;;8.57;5.28;;;;;;;24.21;63.69;100428.22;4192788;28;20049;-59
2023/09/17 09:23:00;;;;;;;12.02;5.97;;;;;;;24.21;63.19;100430.88;4149275;28;20052;-59
2023/09/17 09:25:05;;;;;;;6.53;5.33;;;;;;;24.39;63.08;100432.72;4186120;28;20523;-63
2023/09/17 09:27:09;;;;;;;7.70;5.20;;;;;;;24.35;62.32;100432.94;4188488;28;20128;-62
2023/09/17 09:29:12;;;;;;;8.60;5.43;;;;;;;24.33;62.35;100430.34;4192341;28;20036;-62
2023/09/17 09:31:15;;;;;;;11.15;6.05;;;;;;;24.38;62.31;100431.00;4188733;28;20123;-70